sensor_id;sensor_type;location;lat;lon;timestamp;P1;durP1;ratioP1;P2;durP2;ratioP2
70075;SDS011;63241;51.056;3.698;2023-04-06T00:01:48;22.60;;;14.95;;
70075;SDS011;63241;51.056;3.698;2023-04-06T00:04:16;27.55;;;16.27;;
70075;SDS011;63241;51.056;3.698;2023-04-06T00:06:44;25.15;;;16.00;;
70075;SDS011;63241;51.056;3.698;2023-04-06T00:09:12;29.07;;;16.10;;
70075;SDS011;63241;51.056;3.698;2023-04-06T00:11:39;26.45;;;16.52;;
70075;SDS011;63241;51.056;3.698;2023-04-06T00:14:07;27.75;;;16.73;;
70075;SDS011;63241;51.056;3.698;2023-04-06T00:16:35;28.30;;;17.70;;
70075;SDS011;63241;51.056;3.698;2023-04-06T00:19:03;23.67;;;16.42;;
70075;SDS011;63241;51.056;3.698;2023-04-06T00:21:30;26.77;;;17.70;;
70075;SDS011;63241;51.056;3.698;2023-04-06T00:23:58;27.20;;;16.87;;
70075;SDS011;63241;51.056;3.698;2023-04-06T00:26:26;26.77;;;16.62;;
70075;SDS011;63241;51.056;3.698;2023-04-06T00:28:54;26.77;;;17.23;;
70075;SDS011;63241;51.056;3.698;2023-04-06T00:31:22;26.60;;;18.30;;
70075;SDS011;63241;51.056;3.698;2023-04-06T00:33:49;26.90;;;17.65;;
70075;SDS011;63241;51.056;3.698;2023-04-06T00:36:17;28.75;;;17.02;;
70075;SDS011;63241;51.056;3.698;2023-04-06T00:38:45;32.30;;;18.23;;
70075;SDS011;63241;51.056;3.698;2023-04-06T00:41:13;30.15;;;19.02;;
70075;SDS011;63241;51.056;3.698;2023-04-06T00:43:41;33.15;;;18.67;;
70075;SDS011;63241;51.056;3.698;2023-04-06T00:46:08;33.23;;;18.48;;
70075;SDS011;63241;51.056;3.698;2023-04-06T00:48:36;28.47;;;17.25;;
70075;SDS011;63241;51.056;3.698;2023-04-06T00:51:05;29.02;;;19.40;;
70075;SDS011;63241;51.056;3.698;2023-04-06T00:53:33;30.32;;;18.55;;
70075;SDS011;63241;51.056;3.698;2023-04-06T00:56:00;27.62;;;18.55;;
70075;SDS011;63241;51.056;3.698;2023-04-06T00:58:28;29.23;;;18.85;;
70075;SDS011;63241;51.056;3.698;2023-04-06T01:00:56;27.90;;;18.57;;
70075;SDS011;63241;51.056;3.698;2023-04-06T01:03:25;29.02;;;18.90;;
70075;SDS011;63241;51.056;3.698;2023-04-06T01:05:53;32.00;;;19.80;;
70075;SDS011;63241;51.056;3.698;2023-04-06T01:08:22;29.50;;;18.73;;
70075;SDS011;63241;51.056;3.698;2023-04-06T01:10:50;32.95;;;20.10;;
70075;SDS011;63241;51.056;3.698;2023-04-06T01:13:18;30.97;;;20.45;;
70075;SDS011;63241;51.056;3.698;2023-04-06T01:15:46;31.48;;;21.73;;
70075;SDS011;63241;51.056;3.698;2023-04-06T01:18:14;33.13;;;22.07;;
70075;SDS011;63241;51.056;3.698;2023-04-06T01:20:41;32.30;;;21.27;;
70075;SDS011;63241;51.056;3.698;2023-04-06T01:23:09;39.03;;;22.50;;
70075;SDS011;63241;51.056;3.698;2023-04-06T01:25:37;36.03;;;23.45;;
70075;SDS011;63241;51.056;3.698;2023-04-06T01:28:05;36.90;;;22.82;;
70075;SDS011;63241;51.056;3.698;2023-04-06T01:30:33;34.73;;;23.85;;
70075;SDS011;63241;51.056;3.698;2023-04-06T01:33:01;33.67;;;22.65;;
70075;SDS011;63241;51.056;3.698;2023-04-06T01:35:29;38.73;;;24.30;;
70075;SDS011;63241;51.056;3.698;2023-04-06T01:37:57;37.78;;;24.70;;
70075;SDS011;63241;51.056;3.698;2023-04-06T01:40:25;36.10;;;22.60;;
70075;SDS011;63241;51.056;3.698;2023-04-06T01:42:53;32.30;;;23.40;;
70075;SDS011;63241;51.056;3.698;2023-04-06T01:45:21;42.10;;;24.85;;
70075;SDS011;63241;51.056;3.698;2023-04-06T01:47:48;43.75;;;25.17;;
70075;SDS011;63241;51.056;3.698;2023-04-06T01:50:16;37.15;;;24.43;;
70075;SDS011;63241;51.056;3.698;2023-04-06T01:52:44;34.43;;;24.05;;
70075;SDS011;63241;51.056;3.698;2023-04-06T01:55:12;43.78;;;25.17;;
70075;SDS011;63241;51.056;3.698;2023-04-06T01:57:40;36.80;;;25.75;;
70075;SDS011;63241;51.056;3.698;2023-04-06T02:00:08;34.88;;;25.20;;
70075;SDS011;63241;51.056;3.698;2023-04-06T02:02:36;40.60;;;26.37;;
70075;SDS011;63241;51.056;3.698;2023-04-06T02:05:04;41.23;;;26.25;;
70075;SDS011;63241;51.056;3.698;2023-04-06T02:07:32;34.73;;;24.70;;
70075;SDS011;63241;51.056;3.698;2023-04-06T02:10:00;38.53;;;26.85;;
70075;SDS011;63241;51.056;3.698;2023-04-06T02:12:27;38.78;;;26.50;;
70075;SDS011;63241;51.056;3.698;2023-04-06T02:14:55;40.63;;;26.65;;
70075;SDS011;63241;51.056;3.698;2023-04-06T02:17:23;41.37;;;27.07;;
70075;SDS011;63241;51.056;3.698;2023-04-06T02:19:51;40.25;;;26.75;;
70075;SDS011;63241;51.056;3.698;2023-04-06T02:22:19;43.25;;;27.87;;
70075;SDS011;63241;51.056;3.698;2023-04-06T02:24:46;35.60;;;26.15;;
70075;SDS011;63241;51.056;3.698;2023-04-06T02:27:14;41.18;;;27.37;;
70075;SDS011;63241;51.056;3.698;2023-04-06T02:29:42;41.28;;;28.12;;
70075;SDS011;63241;51.056;3.698;2023-04-06T02:32:09;45.28;;;28.87;;
70075;SDS011;63241;51.056;3.698;2023-04-06T02:34:37;42.17;;;28.12;;
70075;SDS011;63241;51.056;3.698;2023-04-06T02:37:05;41.05;;;27.70;;
70075;SDS011;63241;51.056;3.698;2023-04-06T02:39:33;43.87;;;28.30;;
70075;SDS011;63241;51.056;3.698;2023-04-06T02:42:00;47.05;;;29.55;;
70075;SDS011;63241;51.056;3.698;2023-04-06T02:44:28;42.00;;;29.87;;
70075;SDS011;63241;51.056;3.698;2023-04-06T02:46:56;44.00;;;29.18;;
70075;SDS011;63241;51.056;3.698;2023-04-06T02:49:24;47.83;;;31.60;;
70075;SDS011;63241;51.056;3.698;2023-04-06T02:51:51;44.83;;;29.48;;
70075;SDS011;63241;51.056;3.698;2023-04-06T02:54:19;42.88;;;28.20;;
70075;SDS011;63241;51.056;3.698;2023-04-06T02:56:47;42.98;;;30.88;;
70075;SDS011;63241;51.056;3.698;2023-04-06T02:59:15;44.30;;;29.72;;
70075;SDS011;63241;51.056;3.698;2023-04-06T03:01:43;46.33;;;31.27;;
70075;SDS011;63241;51.056;3.698;2023-04-06T03:04:10;48.00;;;30.48;;
70075;SDS011;63241;51.056;3.698;2023-04-06T03:06:38;51.23;;;31.97;;
70075;SDS011;63241;51.056;3.698;2023-04-06T03:09:06;45.33;;;31.68;;
70075;SDS011;63241;51.056;3.698;2023-04-06T03:11:34;54.60;;;32.70;;
70075;SDS011;63241;51.056;3.698;2023-04-06T03:14:02;53.55;;;33.23;;
70075;SDS011;63241;51.056;3.698;2023-04-06T03:16:30;50.52;;;33.98;;
70075;SDS011;63241;51.056;3.698;2023-04-06T03:18:58;52.83;;;33.48;;
70075;SDS011;63241;51.056;3.698;2023-04-06T03:21:25;48.00;;;32.73;;
70075;SDS011;63241;51.056;3.698;2023-04-06T03:23:53;49.20;;;32.45;;
70075;SDS011;63241;51.056;3.698;2023-04-06T03:26:21;50.67;;;32.75;;
70075;SDS011;63241;51.056;3.698;2023-04-06T03:28:49;51.02;;;34.63;;
70075;SDS011;63241;51.056;3.698;2023-04-06T03:31:17;52.70;;;32.93;;
70075;SDS011;63241;51.056;3.698;2023-04-06T03:33:44;52.48;;;33.10;;
70075;SDS011;63241;51.056;3.698;2023-04-06T03:36:12;50.60;;;32.42;;
70075;SDS011;63241;51.056;3.698;2023-04-06T03:38:40;49.53;;;31.65;;
70075;SDS011;63241;51.056;3.698;2023-04-06T03:41:08;46.45;;;30.95;;
70075;SDS011;63241;51.056;3.698;2023-04-06T03:43:36;49.33;;;30.88;;
70075;SDS011;63241;51.056;3.698;2023-04-06T03:46:04;52.70;;;31.55;;
70075;SDS011;63241;51.056;3.698;2023-04-06T03:48:31;52.25;;;31.68;;
70075;SDS011;63241;51.056;3.698;2023-04-06T03:50:59;47.45;;;30.32;;
70075;SDS011;63241;51.056;3.698;2023-04-06T03:53:27;44.25;;;29.07;;
70075;SDS011;63241;51.056;3.698;2023-04-06T03:55:55;48.42;;;29.67;;
70075;SDS011;63241;51.056;3.698;2023-04-06T03:58:22;52.17;;;31.97;;
70075;SDS011;63241;51.056;3.698;2023-04-06T04:00:50;48.63;;;30.05;;
70075;SDS011;63241;51.056;3.698;2023-04-06T04:03:18;46.45;;;29.27;;
70075;SDS011;63241;51.056;3.698;2023-04-06T04:05:47;50.20;;;31.00;;
70075;SDS011;63241;51.056;3.698;2023-04-06T04:08:15;47.08;;;30.45;;
70075;SDS011;63241;51.056;3.698;2023-04-06T04:10:43;49.18;;;30.90;;
70075;SDS011;63241;51.056;3.698;2023-04-06T04:13:11;48.38;;;30.05;;
70075;SDS011;63241;51.056;3.698;2023-04-06T04:15:38;48.13;;;30.55;;
70075;SDS011;63241;51.056;3.698;2023-04-06T04:18:06;49.75;;;30.32;;
70075;SDS011;63241;51.056;3.698;2023-04-06T04:20:34;51.65;;;30.60;;
70075;SDS011;63241;51.056;3.698;2023-04-06T04:23:01;52.88;;;31.85;;
70075;SDS011;63241;51.056;3.698;2023-04-06T04:25:29;47.62;;;31.15;;
70075;SDS011;63241;51.056;3.698;2023-04-06T04:27:57;50.60;;;30.60;;
70075;SDS011;63241;51.056;3.698;2023-04-06T04:30:25;49.20;;;29.48;;
70075;SDS011;63241;51.056;3.698;2023-04-06T04:32:52;48.30;;;29.00;;
70075;SDS011;63241;51.056;3.698;2023-04-06T04:35:20;46.18;;;27.13;;
70075;SDS011;63241;51.056;3.698;2023-04-06T04:37:48;44.67;;;28.40;;
70075;SDS011;63241;51.056;3.698;2023-04-06T04:40:16;47.10;;;31.48;;
70075;SDS011;63241;51.056;3.698;2023-04-06T04:42:43;46.23;;;28.92;;
70075;SDS011;63241;51.056;3.698;2023-04-06T04:45:12;42.65;;;28.00;;
70075;SDS011;63241;51.056;3.698;2023-04-06T04:47:40;46.77;;;30.20;;
70075;SDS011;63241;51.056;3.698;2023-04-06T04:50:07;42.73;;;27.50;;
70075;SDS011;63241;51.056;3.698;2023-04-06T04:52:37;41.15;;;27.30;;
70075;SDS011;63241;51.056;3.698;2023-04-06T04:55:05;49.45;;;28.30;;
70075;SDS011;63241;51.056;3.698;2023-04-06T04:57:33;43.52;;;26.45;;
70075;SDS011;63241;51.056;3.698;2023-04-06T05:00:01;46.37;;;27.90;;
70075;SDS011;63241;51.056;3.698;2023-04-06T05:02:29;45.08;;;27.05;;
70075;SDS011;63241;51.056;3.698;2023-04-06T05:04:56;45.63;;;28.15;;
70075;SDS011;63241;51.056;3.698;2023-04-06T05:07:24;43.30;;;29.20;;
70075;SDS011;63241;51.056;3.698;2023-04-06T05:09:52;43.17;;;28.30;;
70075;SDS011;63241;51.056;3.698;2023-04-06T05:12:20;44.35;;;28.92;;
70075;SDS011;63241;51.056;3.698;2023-04-06T05:14:48;46.92;;;29.48;;
70075;SDS011;63241;51.056;3.698;2023-04-06T05:17:16;45.67;;;30.08;;
70075;SDS011;63241;51.056;3.698;2023-04-06T05:19:43;47.40;;;28.75;;
70075;SDS011;63241;51.056;3.698;2023-04-06T05:22:11;44.83;;;29.15;;
70075;SDS011;63241;51.056;3.698;2023-04-06T05:24:40;50.98;;;30.62;;
70075;SDS011;63241;51.056;3.698;2023-04-06T05:27:08;47.13;;;28.67;;
70075;SDS011;63241;51.056;3.698;2023-04-06T05:29:36;44.60;;;28.77;;
70075;SDS011;63241;51.056;3.698;2023-04-06T05:32:06;44.90;;;29.45;;
70075;SDS011;63241;51.056;3.698;2023-04-06T05:34:34;43.38;;;28.85;;
70075;SDS011;63241;51.056;3.698;2023-04-06T05:37:01;42.58;;;28.10;;
70075;SDS011;63241;51.056;3.698;2023-04-06T05:39:29;39.65;;;28.00;;
70075;SDS011;63241;51.056;3.698;2023-04-06T05:41:57;42.50;;;28.45;;
70075;SDS011;63241;51.056;3.698;2023-04-06T05:44:24;41.60;;;28.35;;
70075;SDS011;63241;51.056;3.698;2023-04-06T05:46:52;41.48;;;27.90;;
70075;SDS011;63241;51.056;3.698;2023-04-06T05:49:20;41.90;;;28.12;;
70075;SDS011;63241;51.056;3.698;2023-04-06T05:51:48;46.90;;;28.30;;
70075;SDS011;63241;51.056;3.698;2023-04-06T05:54:15;45.25;;;29.85;;
70075;SDS011;63241;51.056;3.698;2023-04-06T05:56:43;42.17;;;29.27;;
70075;SDS011;63241;51.056;3.698;2023-04-06T05:59:11;41.00;;;27.05;;
70075;SDS011;63241;51.056;3.698;2023-04-06T06:01:39;45.05;;;29.20;;
70075;SDS011;63241;51.056;3.698;2023-04-06T06:04:06;47.40;;;29.48;;
70075;SDS011;63241;51.056;3.698;2023-04-06T06:06:34;45.73;;;28.00;;
70075;SDS011;63241;51.056;3.698;2023-04-06T06:09:02;45.25;;;28.42;;
70075;SDS011;63241;51.056;3.698;2023-04-06T06:11:30;43.63;;;29.02;;
70075;SDS011;63241;51.056;3.698;2023-04-06T06:13:58;36.77;;;23.92;;
70075;SDS011;63241;51.056;3.698;2023-04-06T06:16:26;36.73;;;21.37;;
70075;SDS011;63241;51.056;3.698;2023-04-06T06:18:54;36.23;;;21.50;;
70075;SDS011;63241;51.056;3.698;2023-04-06T06:21:22;32.30;;;21.80;;
70075;SDS011;63241;51.056;3.698;2023-04-06T06:23:49;30.85;;;19.65;;
70075;SDS011;63241;51.056;3.698;2023-04-06T06:26:19;33.48;;;22.15;;
70075;SDS011;63241;51.056;3.698;2023-04-06T06:28:47;31.97;;;20.30;;
70075;SDS011;63241;51.056;3.698;2023-04-06T06:31:15;35.90;;;21.35;;
70075;SDS011;63241;51.056;3.698;2023-04-06T06:33:42;32.35;;;21.15;;
70075;SDS011;63241;51.056;3.698;2023-04-06T06:36:10;31.37;;;19.82;;
70075;SDS011;63241;51.056;3.698;2023-04-06T06:38:38;26.27;;;17.90;;
70075;SDS011;63241;51.056;3.698;2023-04-06T06:41:06;29.45;;;17.32;;
70075;SDS011;63241;51.056;3.698;2023-04-06T06:43:33;30.05;;;18.45;;
70075;SDS011;63241;51.056;3.698;2023-04-06T06:46:01;31.85;;;19.48;;
70075;SDS011;63241;51.056;3.698;2023-04-06T06:48:29;29.72;;;18.20;;
70075;SDS011;63241;51.056;3.698;2023-04-06T06:50:57;26.07;;;17.25;;
70075;SDS011;63241;51.056;3.698;2023-04-06T06:53:25;31.50;;;18.80;;
70075;SDS011;63241;51.056;3.698;2023-04-06T06:55:53;30.75;;;18.37;;
70075;SDS011;63241;51.056;3.698;2023-04-06T06:58:20;29.05;;;16.17;;
70075;SDS011;63241;51.056;3.698;2023-04-06T07:00:48;29.75;;;16.95;;
70075;SDS011;63241;51.056;3.698;2023-04-06T07:03:16;28.95;;;16.12;;
70075;SDS011;63241;51.056;3.698;2023-04-06T07:05:47;26.12;;;16.52;;
70075;SDS011;63241;51.056;3.698;2023-04-06T07:08:17;27.70;;;16.17;;
70075;SDS011;63241;51.056;3.698;2023-04-06T07:10:47;32.80;;;17.55;;
70075;SDS011;63241;51.056;3.698;2023-04-06T07:13:18;26.42;;;16.55;;
70075;SDS011;63241;51.056;3.698;2023-04-06T07:15:50;25.05;;;15.63;;
70075;SDS011;63241;51.056;3.698;2023-04-06T07:18:18;27.37;;;16.32;;
70075;SDS011;63241;51.056;3.698;2023-04-06T07:20:46;28.98;;;15.15;;
70075;SDS011;63241;51.056;3.698;2023-04-06T07:23:14;23.85;;;14.65;;
70075;SDS011;63241;51.056;3.698;2023-04-06T07:25:41;24.72;;;14.18;;
70075;SDS011;63241;51.056;3.698;2023-04-06T07:28:09;24.43;;;13.30;;
70075;SDS011;63241;51.056;3.698;2023-04-06T07:30:37;23.25;;;13.78;;
70075;SDS011;63241;51.056;3.698;2023-04-06T07:33:05;21.80;;;13.28;;
70075;SDS011;63241;51.056;3.698;2023-04-06T07:35:33;17.05;;;11.75;;
70075;SDS011;63241;51.056;3.698;2023-04-06T07:38:02;22.55;;;11.68;;
70075;SDS011;63241;51.056;3.698;2023-04-06T07:40:30;21.95;;;11.68;;
70075;SDS011;63241;51.056;3.698;2023-04-06T07:43:00;20.25;;;11.43;;
70075;SDS011;63241;51.056;3.698;2023-04-06T07:45:28;22.85;;;13.48;;
70075;SDS011;63241;51.056;3.698;2023-04-06T07:47:56;23.65;;;13.18;;
70075;SDS011;63241;51.056;3.698;2023-04-06T07:50:23;23.07;;;13.18;;
70075;SDS011;63241;51.056;3.698;2023-04-06T07:52:51;22.77;;;12.88;;
70075;SDS011;63241;51.056;3.698;2023-04-06T07:55:19;25.55;;;13.88;;
70075;SDS011;63241;51.056;3.698;2023-04-06T07:57:46;20.60;;;12.60;;
70075;SDS011;63241;51.056;3.698;2023-04-06T08:00:14;20.92;;;13.32;;
70075;SDS011;63241;51.056;3.698;2023-04-06T08:02:42;24.52;;;13.03;;
70075;SDS011;63241;51.056;3.698;2023-04-06T08:05:10;21.37;;;12.65;;
70075;SDS011;63241;51.056;3.698;2023-04-06T08:07:38;21.95;;;13.30;;
70075;SDS011;63241;51.056;3.698;2023-04-06T08:10:07;21.48;;;12.70;;
70075;SDS011;63241;51.056;3.698;2023-04-06T08:12:35;19.60;;;12.70;;
70075;SDS011;63241;51.056;3.698;2023-04-06T08:15:03;21.40;;;13.62;;
70075;SDS011;63241;51.056;3.698;2023-04-06T08:17:31;24.25;;;14.93;;
70075;SDS011;63241;51.056;3.698;2023-04-06T08:19:59;27.93;;;15.75;;
70075;SDS011;63241;51.056;3.698;2023-04-06T08:22:29;19.42;;;14.40;;
70075;SDS011;63241;51.056;3.698;2023-04-06T08:24:57;22.20;;;14.53;;
70075;SDS011;63241;51.056;3.698;2023-04-06T08:27:25;22.58;;;14.13;;
70075;SDS011;63241;51.056;3.698;2023-04-06T08:29:52;23.50;;;14.60;;
70075;SDS011;63241;51.056;3.698;2023-04-06T08:32:20;22.10;;;15.25;;
70075;SDS011;63241;51.056;3.698;2023-04-06T08:34:47;27.27;;;15.78;;
70075;SDS011;63241;51.056;3.698;2023-04-06T08:37:15;24.57;;;15.75;;
70075;SDS011;63241;51.056;3.698;2023-04-06T08:39:43;23.35;;;16.20;;
70075;SDS011;63241;51.056;3.698;2023-04-06T08:42:16;28.77;;;17.17;;
70075;SDS011;63241;51.056;3.698;2023-04-06T08:44:44;21.68;;;15.30;;
70075;SDS011;63241;51.056;3.698;2023-04-06T08:47:13;24.47;;;16.30;;
70075;SDS011;63241;51.056;3.698;2023-04-06T08:49:41;25.97;;;16.75;;
70075;SDS011;63241;51.056;3.698;2023-04-06T08:52:11;29.87;;;17.67;;
70075;SDS011;63241;51.056;3.698;2023-04-06T08:54:39;35.38;;;18.07;;
70075;SDS011;63241;51.056;3.698;2023-04-06T08:57:07;31.60;;;17.98;;
70075;SDS011;63241;51.056;3.698;2023-04-06T08:59:36;29.55;;;17.52;;
70075;SDS011;63241;51.056;3.698;2023-04-06T09:02:05;28.15;;;17.07;;
70075;SDS011;63241;51.056;3.698;2023-04-06T09:04:35;30.40;;;19.00;;
70075;SDS011;63241;51.056;3.698;2023-04-06T09:07:03;30.88;;;18.60;;
70075;SDS011;63241;51.056;3.698;2023-04-06T09:09:31;28.98;;;18.87;;
70075;SDS011;63241;51.056;3.698;2023-04-06T09:11:59;26.82;;;17.48;;
70075;SDS011;63241;51.056;3.698;2023-04-06T09:14:35;30.23;;;18.12;;
70075;SDS011;63241;51.056;3.698;2023-04-06T09:17:06;28.05;;;18.60;;
70075;SDS011;63241;51.056;3.698;2023-04-06T09:19:34;27.50;;;17.35;;
70075;SDS011;63241;51.056;3.698;2023-04-06T09:22:13;28.38;;;18.45;;
70075;SDS011;63241;51.056;3.698;2023-04-06T09:24:44;31.25;;;18.37;;
70075;SDS011;63241;51.056;3.698;2023-04-06T09:27:14;29.77;;;18.15;;
70075;SDS011;63241;51.056;3.698;2023-04-06T09:29:42;30.40;;;18.87;;
70075;SDS011;63241;51.056;3.698;2023-04-06T09:32:11;31.80;;;18.82;;
70075;SDS011;63241;51.056;3.698;2023-04-06T09:34:40;30.82;;;18.52;;
70075;SDS011;63241;51.056;3.698;2023-04-06T09:37:14;33.67;;;20.20;;
70075;SDS011;63241;51.056;3.698;2023-04-06T09:39:44;31.30;;;19.90;;
70075;SDS011;63241;51.056;3.698;2023-04-06T09:42:24;28.80;;;17.77;;
70075;SDS011;63241;51.056;3.698;2023-04-06T09:44:52;35.85;;;18.77;;
70075;SDS011;63241;51.056;3.698;2023-04-06T09:47:21;32.60;;;19.23;;
70075;SDS011;63241;51.056;3.698;2023-04-06T09:49:50;30.20;;;19.25;;
70075;SDS011;63241;51.056;3.698;2023-04-06T10:26:34;29.45;;;19.32;;
70075;SDS011;63241;51.056;3.698;2023-04-06T10:35:38;28.27;;;18.67;;
70075;SDS011;63241;51.056;3.698;2023-04-06T10:38:06;25.55;;;16.62;;
70075;SDS011;63241;51.056;3.698;2023-04-06T10:40:37;26.37;;;17.80;;
70075;SDS011;63241;51.056;3.698;2023-04-06T10:49:26;25.37;;;17.50;;
70075;SDS011;63241;51.056;3.698;2023-04-06T10:51:55;28.90;;;17.07;;
70075;SDS011;63241;51.056;3.698;2023-04-06T10:54:24;26.27;;;17.25;;
70075;SDS011;63241;51.056;3.698;2023-04-06T11:03:00;20.10;;;15.40;;
70075;SDS011;63241;51.056;3.698;2023-04-06T11:05:32;24.02;;;16.23;;
70075;SDS011;63241;51.056;3.698;2023-04-06T11:08:00;25.00;;;16.17;;
70075;SDS011;63241;51.056;3.698;2023-04-06T11:14:04;23.45;;;16.10;;
70075;SDS011;63241;51.056;3.698;2023-04-06T11:16:36;22.02;;;15.00;;
70075;SDS011;63241;51.056;3.698;2023-04-06T11:19:04;20.72;;;15.25;;
70075;SDS011;63241;51.056;3.698;2023-04-06T11:30:08;21.12;;;14.43;;
70075;SDS011;63241;51.056;3.698;2023-04-06T11:32:43;18.15;;;13.55;;
70075;SDS011;63241;51.056;3.698;2023-04-06T11:35:22;17.12;;;12.95;;
70075;SDS011;63241;51.056;3.698;2023-04-06T11:43:55;14.45;;;11.65;;
70075;SDS011;63241;51.056;3.698;2023-04-06T11:46:23;17.00;;;11.95;;
70075;SDS011;63241;51.056;3.698;2023-04-06T11:48:52;19.02;;;12.80;;
70075;SDS011;63241;51.056;3.698;2023-04-06T11:57:26;19.02;;;12.43;;
70075;SDS011;63241;51.056;3.698;2023-04-06T11:59:54;19.92;;;14.75;;
70075;SDS011;63241;51.056;3.698;2023-04-06T12:02:22;19.73;;;14.70;;
70075;SDS011;63241;51.056;3.698;2023-04-06T12:11:02;21.68;;;16.17;;
70075;SDS011;63241;51.056;3.698;2023-04-06T12:13:30;22.95;;;16.90;;
70075;SDS011;63241;51.056;3.698;2023-04-06T12:15:57;23.22;;;17.52;;
70075;SDS011;63241;51.056;3.698;2023-04-06T12:22:02;28.12;;;18.57;;
70075;SDS011;63241;51.056;3.698;2023-04-06T12:24:31;25.20;;;18.40;;
70075;SDS011;63241;51.056;3.698;2023-04-06T12:26:58;26.33;;;19.82;;
70075;SDS011;63241;51.056;3.698;2023-04-06T12:29:27;29.40;;;19.70;;
70075;SDS011;63241;51.056;3.698;2023-04-06T12:32:03;29.40;;;20.32;;
70075;SDS011;63241;51.056;3.698;2023-04-06T12:35:38;26.30;;;20.30;;
70075;SDS011;63241;51.056;3.698;2023-04-06T12:38:11;26.90;;;19.85;;
70075;SDS011;63241;51.056;3.698;2023-04-06T12:40:39;23.02;;;18.42;;
70075;SDS011;63241;51.056;3.698;2023-04-06T12:43:07;25.45;;;19.50;;
70075;SDS011;63241;51.056;3.698;2023-04-06T12:51:56;25.60;;;18.30;;
70075;SDS011;63241;51.056;3.698;2023-04-06T12:54:24;26.97;;;18.67;;
70075;SDS011;63241;51.056;3.698;2023-04-06T12:56:52;25.40;;;18.98;;
70075;SDS011;63241;51.056;3.698;2023-04-06T13:05:35;19.10;;;13.78;;
70075;SDS011;63241;51.056;3.698;2023-04-06T13:08:04;24.98;;;19.00;;
70075;SDS011;63241;51.056;3.698;2023-04-06T13:10:32;25.55;;;18.52;;
70075;SDS011;63241;51.056;3.698;2023-04-06T13:19:12;26.50;;;19.00;;
70075;SDS011;63241;51.056;3.698;2023-04-06T13:21:40;25.62;;;19.05;;
70075;SDS011;63241;51.056;3.698;2023-04-06T13:24:08;25.88;;;19.73;;
70075;SDS011;63241;51.056;3.698;2023-04-06T13:26:47;26.25;;;19.23;;
70075;SDS011;63241;51.056;3.698;2023-04-06T13:32:48;25.12;;;18.42;;
70075;SDS011;63241;51.056;3.698;2023-04-06T13:35:16;24.75;;;17.10;;
70075;SDS011;63241;51.056;3.698;2023-04-06T13:37:44;25.27;;;18.50;;
70075;SDS011;63241;51.056;3.698;2023-04-06T13:46:27;24.35;;;17.52;;
70075;SDS011;63241;51.056;3.698;2023-04-06T13:48:55;23.42;;;17.92;;
70075;SDS011;63241;51.056;3.698;2023-04-06T13:51:23;26.70;;;17.25;;
70075;SDS011;63241;51.056;3.698;2023-04-06T21:28:49;25.32;;;10.30;;
70075;SDS011;63241;51.056;3.698;2023-04-06T21:31:17;34.23;;;11.18;;
70075;SDS011;63241;51.056;3.698;2023-04-06T21:33:46;31.07;;;10.40;;
70075;SDS011;63241;51.056;3.698;2023-04-06T21:36:14;27.93;;;10.78;;
70075;SDS011;63241;51.056;3.698;2023-04-06T21:44:56;17.77;;;7.90;;
70075;SDS011;63241;51.056;3.698;2023-04-06T21:47:24;27.98;;;8.88;;
70075;SDS011;63241;51.056;3.698;2023-04-06T21:49:51;21.30;;;9.08;;
70075;SDS011;63241;51.056;3.698;2023-04-06T21:58:43;16.48;;;7.78;;
70075;SDS011;63241;51.056;3.698;2023-04-06T22:01:11;18.73;;;8.25;;
70075;SDS011;63241;51.056;3.698;2023-04-06T22:03:39;20.52;;;8.28;;
70075;SDS011;63241;51.056;3.698;2023-04-06T22:41:27;34.30;;;13.40;;
70075;SDS011;63241;51.056;3.698;2023-04-06T22:43:55;26.90;;;11.57;;
70075;SDS011;63241;51.056;3.698;2023-04-06T22:52:04;26.73;;;9.63;;
70075;SDS011;63241;51.056;3.698;2023-04-06T22:54:32;24.18;;;9.75;;
70075;SDS011;63241;51.056;3.698;2023-04-06T22:57:00;19.95;;;8.33;;
70075;SDS011;63241;51.056;3.698;2023-04-06T23:05:38;17.70;;;6.83;;
70075;SDS011;63241;51.056;3.698;2023-04-06T23:08:06;19.77;;;6.45;;
70075;SDS011;63241;51.056;3.698;2023-04-06T23:10:34;16.50;;;5.67;;
70075;SDS011;63241;51.056;3.698;2023-04-06T23:19:10;18.30;;;5.28;;
70075;SDS011;63241;51.056;3.698;2023-04-06T23:21:38;16.25;;;4.85;;
70075;SDS011;63241;51.056;3.698;2023-04-06T23:24:06;19.80;;;5.53;;
70075;SDS011;63241;51.056;3.698;2023-04-06T23:32:52;14.07;;;4.83;;
70075;SDS011;63241;51.056;3.698;2023-04-06T23:35:19;20.23;;;5.37;;
70075;SDS011;63241;51.056;3.698;2023-04-06T23:37:47;19.45;;;4.78;;
70075;SDS011;63241;51.056;3.698;2023-04-06T23:46:25;11.60;;;4.33;;
70075;SDS011;63241;51.056;3.698;2023-04-06T23:48:53;22.80;;;5.42;;
70075;SDS011;63241;51.056;3.698;2023-04-06T23:51:20;12.23;;;4.72;;
